createdAt,value
2023-05-15T00:00:44.428Z,16.19
2023-05-15T00:03:13.031Z,16.14
2023-05-15T00:05:42.503Z,15.88
2023-05-15T00:08:10.728Z,15.96
2023-05-15T00:10:40.874Z,16.24
2023-05-15T00:13:10.884Z,16.05
2023-05-15T00:15:39.001Z,16.09
2023-05-15T00:18:07.290Z,16.07
2023-05-15T00:20:35.339Z,15.91
2023-05-15T00:23:04.767Z,15.97
2023-05-15T00:25:32.922Z,15.95
2023-05-15T00:28:00.911Z,15.83
2023-05-15T00:30:30.697Z,15.96
2023-05-15T00:32:58.850Z,15.95
2023-05-15T00:35:27.300Z,16.15
2023-05-15T00:37:55.455Z,15.95
2023-05-15T00:40:27.023Z,15.87
2023-05-15T00:42:55.629Z,16.05
2023-05-15T00:45:27.003Z,15.95
2023-05-15T00:47:56.064Z,16.06
2023-05-15T00:50:25.464Z,15.92
2023-05-15T00:52:54.283Z,15.89
2023-05-15T00:55:22.457Z,16.02
2023-05-15T00:57:54.045Z,15.77
2023-05-15T01:00:22.301Z,15.47
2023-05-15T01:02:50.876Z,15.57
2023-05-15T01:05:19.275Z,15.70
2023-05-15T01:07:56.014Z,15.72
2023-05-15T01:10:25.206Z,15.56
2023-05-15T01:12:56.748Z,15.34
2023-05-15T01:15:25.364Z,15.52
2023-05-15T01:17:53.799Z,15.71
2023-05-15T01:20:24.329Z,15.56
2023-05-15T01:23:01.696Z,15.51
2023-05-15T01:25:54.222Z,15.39
2023-05-15T01:28:31.904Z,15.54
2023-05-15T01:31:07.404Z,15.44
2023-05-15T01:33:42.911Z,15.35
2023-05-15T01:36:15.986Z,15.73
2023-05-15T01:38:47.454Z,15.88
2023-05-15T01:41:23.524Z,15.71
2023-05-15T01:43:57.858Z,15.38
2023-05-15T01:46:31.444Z,15.55
2023-05-15T01:49:02.144Z,15.73
2023-05-15T01:51:31.638Z,15.80
2023-05-15T01:54:00.800Z,15.81
2023-05-15T01:56:29.637Z,15.64
2023-05-15T01:59:01.051Z,15.67
2023-05-15T02:01:31.086Z,15.68
2023-05-15T02:03:59.564Z,15.64
2023-05-15T02:06:28.678Z,15.70
2023-05-15T02:08:58.995Z,15.69
2023-05-15T02:11:27.038Z,15.56
2023-05-15T02:13:58.175Z,15.75
2023-05-15T02:16:27.819Z,15.57
2023-05-15T02:18:56.439Z,15.71
2023-05-15T02:21:24.644Z,15.73
2023-05-15T02:23:52.742Z,15.46
2023-05-15T02:26:36.775Z,15.40
2023-05-15T02:29:14.994Z,15.58
2023-05-15T02:31:52.780Z,15.51
2023-05-15T02:34:29.139Z,15.63
2023-05-15T02:36:59.256Z,15.42
2023-05-15T02:39:28.908Z,15.70
2023-05-15T02:41:58.580Z,15.67
2023-05-15T02:44:27.397Z,15.58
2023-05-15T02:46:57.290Z,15.63
2023-05-15T02:49:25.852Z,15.49
2023-05-15T02:51:53.951Z,15.63
2023-05-15T02:54:22.090Z,15.55
2023-05-15T02:56:50.157Z,15.80
2023-05-15T02:59:20.173Z,15.62
2023-05-15T03:01:48.555Z,15.39
2023-05-15T03:04:18.248Z,15.71
2023-05-15T03:06:46.386Z,15.71
2023-05-15T03:09:14.483Z,15.93
2023-05-15T03:11:42.514Z,15.72
2023-05-15T03:14:10.903Z,15.78
2023-05-15T03:16:39.146Z,15.97
2023-05-15T03:19:07.546Z,15.99
2023-05-15T03:21:37.049Z,15.76
2023-05-15T03:24:05.319Z,16.03
2023-05-15T03:26:33.382Z,15.91
2023-05-15T03:29:02.242Z,16.01
2023-05-15T03:31:30.352Z,15.81
2023-05-15T03:33:58.676Z,16.04
2023-05-15T03:36:26.743Z,16.03
2023-05-15T03:38:56.310Z,16.06
2023-05-15T03:41:26.154Z,15.97
2023-05-15T03:43:54.270Z,16.00
2023-05-15T03:46:22.344Z,15.92
2023-05-15T03:48:50.545Z,16.00
2023-05-15T03:51:18.687Z,16.22
2023-05-15T03:53:46.821Z,16.10
2023-05-15T03:56:16.449Z,16.26
2023-05-15T03:58:44.643Z,16.27
2023-05-15T04:01:12.725Z,16.28
2023-05-15T04:03:40.810Z,16.37
2023-05-15T04:06:08.924Z,16.32
2023-05-15T04:08:37.263Z,16.27
2023-05-15T04:11:06.084Z,16.30
2023-05-15T04:13:35.502Z,16.30
2023-05-15T04:16:04.450Z,16.29
2023-05-15T04:18:32.757Z,16.19
2023-05-15T04:21:00.939Z,16.21
2023-05-15T04:23:29.138Z,16.33
2023-05-15T04:25:57.173Z,16.35
2023-05-15T04:28:25.155Z,16.48
2023-05-15T04:30:54.525Z,16.41
2023-05-15T04:33:22.637Z,16.49
2023-05-15T04:35:50.925Z,16.34
2023-05-15T04:38:19.023Z,16.45
2023-05-15T04:40:47.150Z,16.45
2023-05-15T04:43:15.651Z,16.63
2023-05-15T04:45:43.883Z,16.57
2023-05-15T04:48:13.401Z,16.59
2023-05-15T04:50:41.594Z,16.76
2023-05-15T04:53:09.584Z,16.69
2023-05-15T04:55:37.714Z,16.58
2023-05-15T04:58:05.776Z,16.76
2023-05-15T05:00:33.819Z,16.74
2023-05-15T05:03:02.142Z,16.87
2023-05-15T05:05:31.655Z,16.83
2023-05-15T05:07:59.696Z,16.97
2023-05-15T05:10:27.839Z,17.07
2023-05-15T05:12:56.439Z,17.27
2023-05-15T05:15:24.876Z,17.16
2023-05-15T05:17:54.437Z,17.08
2023-05-15T05:20:22.987Z,17.44
2023-05-15T05:22:52.613Z,17.29
2023-05-15T05:25:20.892Z,17.43
2023-05-15T05:27:48.978Z,17.40
2023-05-15T05:30:17.421Z,17.30
2023-05-15T05:32:45.674Z,17.51
2023-05-15T05:35:13.869Z,17.55
2023-05-15T05:37:41.978Z,17.44
2023-05-15T05:40:12.607Z,17.56
2023-05-15T05:42:40.726Z,17.66
2023-05-15T05:45:09.596Z,17.50
2023-05-15T05:47:37.655Z,17.65
2023-05-15T05:50:06.455Z,17.60
2023-05-15T05:52:34.570Z,17.38
2023-05-15T05:55:02.572Z,17.44
2023-05-15T05:57:32.110Z,17.33
2023-05-15T06:00:00.354Z,17.30
2023-05-15T06:02:29.007Z,17.25
2023-05-15T06:04:57.567Z,17.29
2023-05-15T06:07:25.672Z,17.21
2023-05-15T06:09:53.782Z,17.09
2023-05-15T06:12:23.131Z,17.13
2023-05-15T06:14:53.386Z,17.18
2023-05-15T06:17:21.961Z,17.28
2023-05-15T06:19:50.047Z,17.13
2023-05-15T06:22:18.108Z,17.26
2023-05-15T06:24:46.208Z,17.00
2023-05-15T06:27:14.576Z,17.10
2023-05-15T06:29:42.760Z,17.05
2023-05-15T06:32:12.201Z,17.40
2023-05-15T06:34:40.385Z,17.52
2023-05-15T06:37:08.524Z,17.61
2023-05-15T06:39:36.707Z,17.47
2023-05-15T06:42:05.059Z,17.63
2023-05-15T06:44:33.344Z,17.87
2023-05-15T06:47:01.438Z,17.91
2023-05-15T06:49:31.105Z,17.77
2023-05-15T06:51:59.216Z,18.08
2023-05-15T06:54:27.334Z,18.26
2023-05-15T06:56:55.354Z,18.45
2023-05-15T06:59:23.354Z,18.53
2023-05-15T07:01:51.655Z,18.63
2023-05-15T07:04:19.978Z,18.60
2023-05-15T07:06:49.406Z,18.83
2023-05-15T07:09:17.528Z,19.00
2023-05-15T07:11:45.648Z,19.02
2023-05-15T07:14:13.729Z,19.03
2023-05-15T07:16:41.972Z,19.02
2023-05-15T07:19:10.331Z,19.08
2023-05-15T07:21:38.524Z,19.37
2023-05-15T07:24:08.497Z,19.42
2023-05-15T07:26:46.681Z,19.34
2023-05-15T07:29:25.015Z,19.41
2023-05-15T07:31:53.001Z,19.62
2023-05-15T07:34:21.048Z,19.64
2023-05-15T07:36:49.045Z,20.01
2023-05-15T07:39:18.700Z,20.25
2023-05-15T07:41:47.722Z,20.17
2023-05-15T07:44:15.714Z,20.51
2023-05-15T07:46:45.790Z,20.52
2023-05-15T07:49:13.939Z,20.81
2023-05-15T07:51:42.838Z,20.95
2023-05-15T07:54:10.965Z,21.02
2023-05-15T07:56:40.652Z,21.02
2023-05-15T07:59:09.635Z,20.90
2023-05-15T08:01:38.021Z,20.75
2023-05-15T08:04:09.684Z,20.76
2023-05-15T08:06:39.198Z,20.78
2023-05-15T08:09:08.043Z,20.67
2023-05-15T08:11:37.258Z,20.71
2023-05-15T08:14:06.722Z,20.70
2023-05-15T08:16:35.011Z,20.83
2023-05-15T08:19:05.094Z,20.82
2023-05-15T08:21:33.176Z,20.94
2023-05-15T08:24:01.685Z,21.11
2023-05-15T08:26:29.694Z,21.08
2023-05-15T08:28:57.826Z,21.00
2023-05-15T08:31:27.346Z,21.05
2023-05-15T08:33:55.527Z,21.20
2023-05-15T08:36:23.747Z,21.27
2023-05-15T08:38:51.849Z,21.34
2023-05-15T08:41:39.995Z,21.56
2023-05-15T08:44:10.705Z,21.63
2023-05-15T08:46:40.311Z,21.46
2023-05-15T08:49:15.963Z,21.61
2023-05-15T08:51:44.352Z,21.64
2023-05-15T08:54:12.756Z,21.61
2023-05-15T08:56:41.148Z,21.11
2023-05-15T08:59:09.380Z,21.59
2023-05-15T09:01:38.133Z,21.64
2023-05-15T09:04:07.597Z,21.63
2023-05-15T09:06:36.604Z,21.36
2023-05-15T09:09:06.072Z,21.78
2023-05-15T09:11:34.603Z,21.76
2023-05-15T09:14:02.634Z,21.92
2023-05-15T09:16:30.699Z,22.04
2023-05-15T09:19:01.423Z,22.03
2023-05-15T09:21:32.279Z,22.09
2023-05-15T09:24:18.908Z,21.64
2023-05-15T09:26:48.464Z,21.68
2023-05-15T09:29:19.656Z,21.83
2023-05-15T09:31:48.420Z,21.60
2023-05-15T09:34:16.668Z,21.82
2023-05-15T09:36:46.129Z,21.46
2023-05-15T09:39:14.244Z,21.51
2023-05-15T09:41:45.213Z,21.63
2023-05-15T09:44:21.807Z,21.49
2023-05-15T09:46:51.573Z,21.41
2023-05-15T09:49:20.271Z,21.34
2023-05-15T09:51:50.826Z,20.93
2023-05-15T09:54:20.349Z,20.71
2023-05-15T09:56:49.131Z,20.23
2023-05-15T09:59:19.444Z,20.32
2023-05-15T10:01:47.793Z,20.89
2023-05-15T10:04:16.159Z,21.06
2023-05-15T10:06:46.574Z,21.03
2023-05-15T10:09:16.533Z,21.13
2023-05-15T10:11:51.539Z,21.23
2023-05-15T10:14:21.098Z,21.45
2023-05-15T10:16:49.955Z,21.45
2023-05-15T10:19:21.055Z,21.41
2023-05-15T10:21:49.760Z,21.53
2023-05-15T10:24:21.910Z,21.46
2023-05-15T10:26:50.617Z,21.60
2023-05-15T10:29:21.269Z,21.65
2023-05-15T10:31:50.033Z,21.93
2023-05-15T10:34:19.956Z,21.94
2023-05-15T10:36:50.868Z,22.09
2023-05-15T10:39:21.055Z,21.99
2023-05-15T10:41:52.012Z,22.03
2023-05-15T10:44:21.636Z,21.73
2023-05-15T10:46:50.407Z,21.48
2023-05-15T10:49:18.674Z,21.58
2023-05-15T10:51:46.733Z,21.34
2023-05-15T10:54:15.967Z,21.08
2023-05-15T10:56:45.610Z,20.56
2023-05-15T10:59:13.684Z,21.14
2023-05-15T11:01:42.451Z,21.32
2023-05-15T11:04:12.937Z,21.36
2023-05-15T11:06:45.330Z,21.53
2023-05-15T11:09:36.482Z,21.19
2023-05-15T11:12:07.252Z,21.12
2023-05-15T11:14:38.671Z,20.15
2023-05-15T11:17:08.706Z,20.20
2023-05-15T11:19:55.560Z,20.67
2023-05-15T11:22:28.506Z,21.08
2023-05-15T11:25:00.355Z,21.27
2023-05-15T11:27:32.362Z,21.18
2023-05-15T11:30:15.311Z,21.37
2023-05-15T11:32:56.209Z,21.63
2023-05-15T11:35:27.816Z,21.71
2023-05-15T11:37:58.323Z,21.89
2023-05-15T11:40:28.152Z,21.93
2023-05-15T11:43:08.734Z,21.70
2023-05-15T11:45:38.725Z,21.92
2023-05-15T11:48:13.767Z,21.88
2023-05-15T11:50:43.118Z,22.15
2023-05-15T11:53:11.575Z,22.25
2023-05-15T11:55:41.518Z,22.35
2023-05-15T11:58:15.129Z,22.51
2023-05-15T12:00:43.875Z,22.36
2023-05-15T12:03:20.503Z,22.53
2023-05-15T12:05:58.051Z,23.03
2023-05-15T12:08:28.259Z,23.30
2023-05-15T12:11:00.557Z,23.94
2023-05-15T12:13:30.731Z,24.28
2023-05-15T12:15:58.869Z,24.41
2023-05-15T12:18:26.966Z,24.89
2023-05-15T12:20:55.893Z,24.81
2023-05-15T12:23:25.483Z,25.00
2023-05-15T12:25:58.542Z,25.46
2023-05-15T12:28:27.314Z,26.20
2023-05-15T12:30:57.179Z,27.05
2023-05-15T12:33:26.079Z,27.22
2023-05-15T12:36:00.281Z,27.36
2023-05-15T12:38:30.659Z,28.06
2023-05-15T12:40:59.002Z,28.48
2023-05-15T12:43:27.563Z,26.94
2023-05-15T12:45:58.234Z,27.66
2023-05-15T12:48:31.401Z,28.45
2023-05-15T12:51:06.726Z,28.53
2023-05-15T12:53:35.303Z,28.59
2023-05-15T12:56:04.883Z,28.93
2023-05-15T12:58:32.975Z,28.49
2023-05-15T13:01:03.676Z,27.80
2023-05-15T13:03:32.478Z,27.83
2023-05-15T13:06:03.502Z,27.75
2023-05-15T13:08:31.616Z,27.46
2023-05-15T13:11:01.404Z,27.46
2023-05-15T13:13:46.090Z,26.74
2023-05-15T13:16:23.425Z,27.06
2023-05-15T13:18:51.683Z,27.10
2023-05-15T13:21:20.132Z,26.30
2023-05-15T13:23:48.251Z,26.70
2023-05-15T13:26:16.370Z,26.63
2023-05-15T13:28:44.495Z,26.55
2023-05-15T13:31:12.667Z,26.08
2023-05-15T13:33:42.194Z,26.00
2023-05-15T13:36:10.670Z,25.48
2023-05-15T13:38:39.350Z,24.84
2023-05-15T13:41:07.484Z,24.49
2023-05-15T13:43:35.588Z,24.18
2023-05-15T13:46:03.642Z,24.32
2023-05-15T13:48:31.837Z,23.98
2023-05-15T13:51:01.352Z,23.71
2023-05-15T13:53:29.375Z,23.47
2023-05-15T13:55:57.507Z,22.72
2023-05-15T13:58:26.776Z,22.88
2023-05-15T14:00:54.990Z,21.82
2023-05-15T14:03:23.264Z,21.98
2023-05-15T14:05:51.950Z,21.98
2023-05-15T14:08:21.577Z,22.16
2023-05-15T14:10:49.625Z,22.14
2023-05-15T14:13:17.899Z,22.13
2023-05-15T14:15:46.161Z,22.20
2023-05-15T14:18:14.287Z,21.93
2023-05-15T14:20:42.337Z,21.59
2023-05-15T14:23:10.403Z,21.55
2023-05-15T14:25:39.932Z,21.79
2023-05-15T14:28:08.085Z,22.04
2023-05-15T14:30:36.144Z,22.59
2023-05-15T14:33:04.261Z,22.73
2023-05-15T14:35:32.426Z,23.32
2023-05-15T14:38:00.536Z,23.59
2023-05-15T14:40:28.628Z,24.22
2023-05-15T14:42:58.698Z,24.42
2023-05-15T14:45:27.148Z,24.49
2023-05-15T14:47:55.401Z,25.19
2023-05-15T14:50:23.685Z,25.84
2023-05-15T14:52:58.608Z,25.94
2023-05-15T14:55:27.769Z,26.12
2023-05-15T14:58:01.102Z,26.49
2023-05-15T15:00:30.205Z,27.23
2023-05-15T15:02:59.522Z,27.49
2023-05-15T15:05:27.696Z,27.88
2023-05-15T15:08:03.756Z,27.12
2023-05-15T15:10:32.895Z,26.63
2023-05-15T15:13:02.486Z,26.20
2023-05-15T15:15:31.989Z,26.56
2023-05-15T15:18:00.169Z,26.50
2023-05-15T15:20:29.117Z,24.56
2023-05-15T15:22:57.525Z,24.03
2023-05-15T15:25:25.589Z,22.68
2023-05-15T15:27:54.067Z,22.75
2023-05-15T15:30:23.808Z,22.33
2023-05-15T15:32:52.041Z,22.51
2023-05-15T15:35:20.183Z,21.91
2023-05-15T15:37:48.220Z,21.95
2023-05-15T15:40:16.489Z,22.16
2023-05-15T15:42:44.583Z,22.58
2023-05-15T15:45:12.699Z,21.60
2023-05-15T15:47:42.374Z,22.88
2023-05-15T15:50:10.919Z,21.62
2023-05-15T15:52:38.894Z,22.15
2023-05-15T15:55:08.224Z,22.69
2023-05-15T15:57:38.023Z,22.80
2023-05-15T16:00:08.283Z,22.33
2023-05-15T16:02:37.107Z,22.21
2023-05-15T16:05:08.535Z,21.53
2023-05-15T16:07:36.750Z,22.49
2023-05-15T16:10:12.523Z,22.08
2023-05-15T16:12:53.271Z,23.02
2023-05-15T16:15:23.728Z,23.71
2023-05-15T16:17:54.363Z,23.56
2023-05-15T16:20:25.012Z,23.42
2023-05-15T16:22:53.584Z,23.27
2023-05-15T16:25:21.825Z,23.27
2023-05-15T16:27:49.944Z,23.58
2023-05-15T16:30:18.181Z,23.83
2023-05-15T16:32:46.810Z,24.11
2023-05-15T16:35:15.057Z,24.34
2023-05-15T16:37:44.469Z,24.03
2023-05-15T16:40:13.427Z,23.89
2023-05-15T16:42:41.687Z,22.22
2023-05-15T16:45:10.684Z,19.61
2023-05-15T16:47:40.073Z,19.64
2023-05-15T16:50:09.173Z,20.01
2023-05-15T16:52:38.872Z,19.89
2023-05-15T16:55:09.448Z,19.57
2023-05-15T16:57:37.530Z,18.84
2023-05-15T17:00:09.619Z,18.95
2023-05-15T17:02:37.967Z,18.69
2023-05-15T17:05:08.832Z,19.73
2023-05-15T17:07:37.043Z,20.53
2023-05-15T17:10:05.643Z,19.68
2023-05-15T17:12:35.240Z,19.94
2023-05-15T17:15:03.743Z,20.23
2023-05-15T17:17:31.841Z,20.23
2023-05-15T17:20:01.110Z,20.94
2023-05-15T17:22:30.945Z,21.02
2023-05-15T17:24:59.370Z,21.24
2023-05-15T17:27:27.516Z,21.40
2023-05-15T17:29:57.253Z,21.63
2023-05-15T17:32:25.705Z,21.52
2023-05-15T17:34:54.072Z,21.56
2023-05-15T17:37:22.070Z,21.52
2023-05-15T17:39:50.546Z,20.52
2023-05-15T17:42:18.681Z,20.36
2023-05-15T17:44:46.705Z,20.02
2023-05-15T17:47:16.133Z,20.13
2023-05-15T17:49:44.374Z,19.17
2023-05-15T17:52:12.454Z,18.67
2023-05-15T17:54:40.518Z,18.33
2023-05-15T17:57:08.602Z,18.97
2023-05-15T17:59:36.663Z,18.91
2023-05-15T18:02:05.018Z,19.52
2023-05-15T18:04:34.664Z,19.55
2023-05-15T18:07:02.804Z,19.33
2023-05-15T18:09:31.665Z,20.04
2023-05-15T18:11:59.968Z,19.97
2023-05-15T18:14:28.030Z,19.63
2023-05-15T18:16:57.546Z,19.60
2023-05-15T18:19:25.740Z,19.26
2023-05-15T18:21:55.574Z,19.82
2023-05-15T18:24:23.620Z,19.86
2023-05-15T18:26:51.712Z,19.71
2023-05-15T18:29:20.015Z,19.48
2023-05-15T18:31:48.221Z,18.81
2023-05-15T18:34:16.309Z,18.67
2023-05-15T18:36:44.466Z,19.03
2023-05-15T18:39:15.662Z,18.74
2023-05-15T18:41:43.869Z,18.54
2023-05-15T18:44:11.951Z,17.85
2023-05-15T18:46:40.099Z,18.87
2023-05-15T18:49:08.508Z,19.03
2023-05-15T18:51:36.648Z,19.07
2023-05-15T18:54:04.879Z,19.04
2023-05-15T18:56:34.366Z,18.21
2023-05-15T18:59:02.500Z,18.81
2023-05-15T19:01:30.843Z,17.99
2023-05-15T19:03:59.089Z,18.31
2023-05-15T19:06:27.354Z,17.77
2023-05-15T19:08:55.522Z,17.88
2023-05-15T19:11:23.662Z,17.81
2023-05-15T19:13:53.226Z,16.79
2023-05-15T19:16:21.433Z,16.72
2023-05-15T19:18:49.569Z,16.51
2023-05-15T19:21:21.041Z,17.00
2023-05-15T19:23:49.282Z,16.42
2023-05-15T19:26:17.326Z,16.28
2023-05-15T19:28:45.375Z,15.94
2023-05-15T19:31:30.195Z,16.32
2023-05-15T19:33:59.666Z,16.50
2023-05-15T19:36:27.766Z,16.59
2023-05-15T19:38:56.081Z,15.73
2023-05-15T19:41:24.589Z,16.07
2023-05-15T19:43:52.627Z,16.01
2023-05-15T19:46:22.029Z,16.38
2023-05-15T19:48:50.112Z,16.32
2023-05-15T19:51:18.224Z,15.57
2023-05-15T19:53:46.242Z,15.46
2023-05-15T19:56:14.895Z,15.46
2023-05-15T19:58:43.000Z,16.34
2023-05-15T20:01:11.341Z,15.10
2023-05-15T20:03:41.014Z,15.36
2023-05-15T20:06:10.444Z,15.45
2023-05-15T20:08:38.684Z,15.60
2023-05-15T20:11:06.822Z,15.17
2023-05-15T20:13:35.575Z,14.93
2023-05-15T20:16:07.193Z,15.71
2023-05-15T20:18:35.826Z,15.33
2023-05-15T20:21:05.300Z,15.39
2023-05-15T20:23:33.390Z,15.25
2023-05-15T20:26:01.514Z,15.26
2023-05-15T20:28:29.635Z,15.27
2023-05-15T20:30:58.470Z,15.35
2023-05-15T20:33:26.747Z,15.90
2023-05-15T20:35:54.829Z,15.66
2023-05-15T20:38:25.428Z,14.99
2023-05-15T20:40:53.689Z,15.16
2023-05-15T20:43:21.762Z,15.00
2023-05-15T20:45:49.823Z,15.51
2023-05-15T20:48:17.998Z,15.07
2023-05-15T20:50:46.070Z,15.31
2023-05-15T20:53:14.411Z,15.08
2023-05-15T20:55:43.916Z,14.95
2023-05-15T20:58:11.908Z,15.09
2023-05-15T21:00:40.233Z,15.57
2023-05-15T21:03:09.379Z,15.03
2023-05-15T21:05:37.627Z,15.12
2023-05-15T21:08:06.088Z,15.14
2023-05-15T21:10:35.591Z,15.36
2023-05-15T21:13:05.380Z,15.47
2023-05-15T21:15:33.487Z,15.60
2023-05-15T21:18:01.798Z,15.49
2023-05-15T21:20:29.864Z,15.49
2023-05-15T21:22:57.931Z,15.29
2023-05-15T21:25:26.064Z,15.43
2023-05-15T21:27:54.110Z,15.30
2023-05-15T21:30:23.736Z,14.74
2023-05-15T21:32:51.930Z,14.99
2023-05-15T21:35:20.021Z,14.96
2023-05-15T21:37:48.375Z,14.55
2023-05-15T21:40:16.616Z,14.92
2023-05-15T21:42:44.719Z,14.22
2023-05-15T21:45:12.835Z,14.74
2023-05-15T21:47:42.529Z,14.03
2023-05-15T21:50:11.153Z,14.40
2023-05-15T21:52:39.165Z,14.62
2023-05-15T21:55:08.484Z,14.19
2023-05-15T21:57:36.487Z,14.41
2023-05-15T22:00:07.335Z,14.27
2023-05-15T22:02:35.408Z,14.26
2023-05-15T22:05:05.466Z,14.45
2023-05-15T22:07:33.633Z,14.62
2023-05-15T22:10:03.187Z,15.02
2023-05-15T22:12:32.299Z,15.53
2023-05-15T22:15:01.303Z,15.80
2023-05-15T22:17:30.511Z,15.83
2023-05-15T22:20:07.484Z,15.52
2023-05-15T22:22:37.968Z,15.59
2023-05-15T22:25:07.213Z,15.22
2023-05-15T22:27:35.262Z,15.10
2023-05-15T22:30:03.315Z,15.39
2023-05-15T22:32:31.474Z,15.14
2023-05-15T22:34:59.479Z,14.93
2023-05-15T22:37:27.566Z,15.01
2023-05-15T22:39:57.199Z,15.29
2023-05-15T22:42:25.633Z,15.53
2023-05-15T22:44:55.440Z,15.03
2023-05-15T22:47:23.585Z,15.65
2023-05-15T22:49:51.601Z,15.70
2023-05-15T22:52:19.740Z,15.72
2023-05-15T22:54:47.836Z,15.72
2023-05-15T22:57:17.270Z,15.43
2023-05-15T22:59:46.003Z,14.95
2023-05-15T23:02:14.053Z,14.90
2023-05-15T23:04:42.086Z,14.88
2023-05-15T23:07:10.135Z,14.37
2023-05-15T23:09:38.165Z,14.90
2023-05-15T23:12:07.345Z,14.88
2023-05-15T23:14:36.791Z,15.39
2023-05-15T23:17:05.055Z,15.41
2023-05-15T23:19:33.194Z,15.14
2023-05-15T23:22:01.187Z,15.18
2023-05-15T23:24:29.219Z,15.01
2023-05-15T23:26:57.658Z,14.92
2023-05-15T23:29:25.807Z,14.92
2023-05-15T23:31:57.114Z,14.88
2023-05-15T23:34:25.306Z,14.27
2023-05-15T23:36:53.275Z,13.88
2023-05-15T23:39:21.412Z,14.12
2023-05-15T23:41:49.764Z,14.28
2023-05-15T23:44:17.861Z,14.13
2023-05-15T23:46:46.127Z,13.94
2023-05-15T23:49:15.621Z,13.69
2023-05-15T23:51:44.506Z,13.95
2023-05-15T23:54:12.742Z,13.94
2023-05-15T23:56:41.209Z,13.71
2023-05-15T23:59:09.196Z,14.29
